createdAt,value
2019-04-02T00:02:20.217Z,96267.05
2019-04-02T00:04:46.342Z,96281.73
2019-04-02T00:07:12.402Z,96264.23
2019-04-02T00:09:38.222Z,96261.14
2019-04-02T00:12:04.028Z,96255.89
2019-04-02T00:14:30.149Z,96257.56
2019-04-02T00:16:56.252Z,96256.22
2019-04-02T00:19:22.088Z,96253.80
2019-04-02T00:21:47.895Z,96254.59
2019-04-02T00:24:13.965Z,96248.50
2019-04-02T00:26:40.041Z,96244.47
2019-04-02T00:29:05.847Z,96245.05
2019-04-02T00:31:31.921Z,96249.31
2019-04-02T00:33:58.023Z,96251.59
2019-04-02T00:36:23.841Z,96247.06
2019-04-02T00:38:52.419Z,96244.68
2019-04-02T00:41:18.241Z,96249.62
2019-04-02T00:43:46.796Z,96235.30
2019-04-02T00:46:12.586Z,96253.02
2019-04-02T00:48:41.429Z,96236.42
2019-04-02T00:51:08.236Z,96240.27
2019-04-02T00:53:38.029Z,96229.55
2019-04-02T00:56:03.981Z,96242.50
2019-04-02T00:58:33.090Z,96224.66
2019-04-02T01:00:59.002Z,96235.64
2019-04-02T01:03:25.120Z,96222.42
2019-04-02T01:05:50.926Z,96216.87
2019-04-02T01:08:17.018Z,96218.63
2019-04-02T01:10:43.303Z,96213.27
2019-04-02T01:13:09.160Z,96215.11
2019-04-02T01:15:37.847Z,96207.41
2019-04-02T01:18:03.952Z,96204.39
2019-04-02T01:20:32.788Z,96198.21
2019-04-02T01:22:58.616Z,96199.97
2019-04-02T01:25:27.852Z,96196.68
2019-04-02T01:27:53.755Z,96195.53
2019-04-02T01:30:22.584Z,96191.53
2019-04-02T01:32:48.422Z,96209.16
2019-04-02T01:35:17.043Z,96191.80
2019-04-02T01:37:42.854Z,96196.68
2019-04-02T01:40:08.949Z,96186.86
2019-04-02T01:42:34.775Z,96184.98
2019-04-02T01:45:00.933Z,96186.68
2019-04-02T01:47:29.514Z,96180.22
2019-04-02T01:49:55.310Z,96175.37
2019-04-02T01:52:24.017Z,96162.45
2019-04-02T01:54:50.098Z,96185.02
2019-04-02T01:57:17.092Z,96078.70
2019-04-02T01:59:42.898Z,96183.20
2019-04-02T02:02:13.168Z,96173.25
2019-04-02T02:04:38.985Z,96168.95
2019-04-02T02:07:07.551Z,96173.48
2019-04-02T02:09:34.151Z,96187.70
2019-04-02T02:12:04.045Z,96168.77
2019-04-02T02:14:29.834Z,96180.06
2019-04-02T02:16:55.650Z,96169.38
2019-04-02T02:19:21.740Z,96159.11
2019-04-02T02:21:47.571Z,96159.27
2019-04-02T02:24:13.473Z,96166.91
2019-04-02T02:26:39.312Z,96163.12
2019-04-02T02:29:08.020Z,96159.33
2019-04-02T02:31:35.973Z,96158.15
2019-04-02T02:34:06.932Z,96159.31
2019-04-02T02:36:32.901Z,96164.98
2019-04-02T02:38:58.722Z,96148.55
2019-04-02T02:41:59.209Z,96149.18
2019-04-02T02:44:25.106Z,96143.11
2019-04-02T02:46:50.905Z,96145.11
2019-04-02T02:49:17.683Z,96135.53
2019-04-02T02:51:44.102Z,96136.02
2019-04-02T02:54:09.877Z,96134.02
2019-04-02T02:56:35.685Z,96133.00
2019-04-02T02:59:01.502Z,96129.37
2019-04-02T03:01:27.806Z,96131.34
2019-04-02T03:03:53.969Z,96125.88
2019-04-02T03:06:20.076Z,96127.98
2019-04-02T03:08:45.862Z,96129.45
2019-04-02T03:11:12.029Z,96119.68
2019-04-02T03:13:38.099Z,96114.06
2019-04-02T03:16:03.987Z,96114.81
2019-04-02T03:18:29.780Z,96122.69
2019-04-02T03:20:55.952Z,96114.09
2019-04-02T03:23:22.046Z,96113.28
2019-04-02T03:25:47.836Z,96109.47
2019-04-02T03:28:13.653Z,96108.94
2019-04-02T03:30:39.836Z,96107.44
2019-04-02T03:33:05.946Z,96109.57
2019-04-02T03:35:33.486Z,96116.34
2019-04-02T03:37:59.504Z,96101.77
2019-04-02T03:40:25.565Z,96102.14
2019-04-02T03:42:51.668Z,96104.55
2019-04-02T03:45:17.460Z,96098.55
2019-04-02T03:47:44.324Z,96095.55
2019-04-02T03:50:10.866Z,96094.13
2019-04-02T03:52:36.666Z,96111.80
2019-04-02T03:55:04.186Z,96091.06
2019-04-02T03:57:30.375Z,96093.26
2019-04-02T03:59:56.212Z,96096.22
2019-04-02T04:04:53.684Z,96090.99
2019-04-02T04:07:21.855Z,96085.64
2019-04-02T04:09:48.209Z,96093.16
2019-04-02T04:12:14.181Z,96084.77
2019-04-02T04:14:40.278Z,96085.86
2019-04-02T04:17:06.110Z,96079.23
2019-04-02T04:19:31.917Z,96079.48
2019-04-02T04:21:57.741Z,96077.73
2019-04-02T04:24:24.609Z,96077.92
2019-04-02T04:26:51.540Z,96072.62
2019-04-02T04:29:17.332Z,96073.20
2019-04-02T04:31:43.144Z,96070.16
2019-04-02T04:34:10.663Z,96067.73
2019-04-02T04:36:36.830Z,96068.11
2019-04-02T04:39:04.670Z,96067.94
2019-04-02T04:41:30.748Z,96067.56
2019-04-02T04:43:56.824Z,96057.73
2019-04-02T04:46:22.630Z,96062.84
2019-04-02T04:48:48.699Z,96060.25
2019-04-02T04:51:14.795Z,96059.16
2019-04-02T04:53:40.644Z,96076.81
2019-04-02T04:56:09.784Z,96064.42
2019-04-02T04:58:35.578Z,96066.00
2019-04-02T05:01:04.943Z,96066.08
2019-04-02T05:04:08.250Z,96067.73
2019-04-02T05:06:34.090Z,96067.45
2019-04-02T05:08:59.867Z,96056.27
2019-04-02T05:11:25.652Z,96055.45
2019-04-02T05:13:51.719Z,96055.17
2019-04-02T05:16:17.547Z,96071.84
2019-04-02T05:18:45.564Z,96056.08
2019-04-02T05:21:11.090Z,96053.28
2019-04-02T05:23:36.900Z,96056.07
2019-04-02T05:26:02.725Z,96055.05
2019-04-02T05:28:28.521Z,96054.28
2019-04-02T05:30:54.351Z,96056.14
2019-04-02T05:33:20.448Z,96054.47
2019-04-02T05:35:46.486Z,96051.96
2019-04-02T05:38:12.329Z,96038.99
2019-04-02T05:40:38.372Z,96054.07
2019-04-02T05:43:04.185Z,96047.91
2019-04-02T05:45:30.005Z,96050.45
2019-04-02T05:47:55.788Z,96047.91
2019-04-02T05:50:21.623Z,96050.15
2019-04-02T05:52:47.700Z,96046.98
2019-04-02T05:55:13.494Z,96051.78
2019-04-02T05:57:39.395Z,96045.29
2019-04-02T06:00:05.905Z,96056.09
2019-04-02T06:02:31.720Z,96041.66
2019-04-02T06:04:57.512Z,96042.45
2019-04-02T06:07:23.334Z,96046.48
2019-04-02T06:09:49.143Z,96046.48
2019-04-02T06:12:14.942Z,96002.60
2019-04-02T06:14:40.795Z,96054.30
2019-04-02T06:17:06.625Z,96038.48
2019-04-02T06:19:32.412Z,96045.16
2019-04-02T06:21:58.506Z,96039.60
2019-04-02T06:24:24.323Z,96036.11
2019-04-02T06:26:50.150Z,96033.81
2019-04-02T06:29:18.697Z,96036.78
2019-04-02T06:31:44.541Z,96027.52
2019-04-02T06:34:10.324Z,96032.61
2019-04-02T06:36:37.010Z,96023.23
2019-04-02T06:39:10.865Z,96026.52
2019-04-02T06:41:37.045Z,96020.72
2019-04-02T06:44:04.531Z,96020.72
2019-04-02T06:46:30.717Z,96026.28
2019-04-02T06:49:08.080Z,96017.80
2019-04-02T06:51:34.187Z,96013.57
2019-04-02T06:54:00.029Z,96016.41
2019-04-02T06:56:26.362Z,96014.08
2019-04-02T06:58:52.835Z,96011.09
2019-04-02T07:01:31.699Z,96011.12
2019-04-02T07:03:46.616Z,96007.69
2019-04-02T07:06:12.406Z,96002.33
2019-04-02T07:08:47.063Z,96002.69
2019-04-02T07:11:06.192Z,96006.23
2019-04-02T07:13:32.057Z,96002.00
2019-04-02T07:15:58.236Z,96004.06
2019-04-02T07:18:24.823Z,96006.61
2019-04-02T07:20:50.917Z,96005.24
2019-04-02T07:23:16.744Z,95994.66
2019-04-02T07:25:43.220Z,95996.57
2019-04-02T07:28:09.088Z,95988.38
2019-04-02T07:30:35.391Z,95983.98
2019-04-02T07:33:01.362Z,95982.95
2019-04-02T07:35:27.177Z,95985.50
2019-04-02T07:37:55.940Z,95983.34
2019-04-02T07:40:21.724Z,95983.05
2019-04-02T07:42:50.314Z,95979.80
2019-04-02T07:45:16.220Z,95989.06
2019-04-02T07:47:42.320Z,95978.08
2019-04-02T07:50:09.665Z,95971.84
2019-04-02T07:52:35.723Z,95968.44
2019-04-02T07:55:01.899Z,95965.62
2019-04-02T07:57:27.697Z,95964.44
2019-04-02T07:59:56.790Z,95978.38
2019-04-02T08:02:22.687Z,95965.53
2019-04-02T08:04:51.534Z,95958.75
2019-04-02T08:07:17.542Z,95961.58
2019-04-02T08:09:46.379Z,95951.54
2019-04-02T08:12:12.233Z,95960.05
2019-04-02T08:14:40.825Z,95954.91
2019-04-02T08:17:06.905Z,95946.19
2019-04-02T08:19:35.946Z,95947.69
2019-04-02T08:22:01.762Z,95961.55
2019-04-02T08:24:27.970Z,95947.00
2019-04-02T08:26:53.782Z,95941.67
2019-04-02T08:29:19.981Z,95940.28
2019-04-02T08:31:49.264Z,95937.25
2019-04-02T08:34:15.064Z,95936.50
2019-04-02T08:36:40.878Z,95927.43
2019-04-02T08:39:07.278Z,95937.92
2019-04-02T08:41:35.822Z,95937.98
2019-04-02T08:44:01.949Z,95932.89
2019-04-02T08:46:30.738Z,95939.88
2019-04-02T08:48:56.799Z,95936.50
2019-04-02T08:51:25.612Z,95936.56
2019-04-02T08:53:51.412Z,95938.83
2019-04-02T08:56:20.154Z,95935.91
2019-04-02T08:58:51.648Z,95923.11
2019-04-02T09:01:14.053Z,95926.95
2019-04-02T09:03:39.882Z,95924.03
2019-04-02T09:06:06.058Z,95928.00
2019-04-02T09:08:31.855Z,95925.05
2019-04-02T09:10:57.668Z,95919.12
2019-04-02T09:13:28.831Z,95917.49
2019-04-02T09:15:54.443Z,95910.53
2019-04-02T09:18:21.288Z,95910.73
2019-04-02T09:20:47.385Z,95922.77
2019-04-02T09:23:18.104Z,95912.62
2019-04-02T09:25:44.894Z,95905.41
2019-04-02T09:28:10.694Z,95911.37
2019-04-02T09:30:36.504Z,95901.48
2019-04-02T09:33:05.304Z,95898.46
2019-04-02T09:35:31.400Z,95892.41
2019-04-02T09:37:57.206Z,95887.20
2019-04-02T09:40:23.005Z,95878.29
2019-04-02T09:42:48.813Z,95875.13
2019-04-02T09:45:19.055Z,95871.01
2019-04-02T09:47:45.149Z,95865.42
2019-04-02T09:50:14.565Z,95854.31
2019-04-02T09:52:40.474Z,95854.31
2019-04-02T09:55:09.354Z,95857.76
2019-04-02T09:57:35.431Z,95853.20
2019-04-02T10:00:03.940Z,95853.20
2019-04-02T10:02:30.596Z,95850.88
2019-04-02T10:04:56.407Z,95838.81
2019-04-02T10:07:22.758Z,95839.31
2019-04-02T10:09:53.353Z,95828.52
2019-04-02T10:12:19.906Z,95828.52
2019-04-02T10:14:45.742Z,95833.35
2019-04-02T10:17:11.586Z,95833.35
2019-04-02T10:19:37.385Z,95830.52
2019-04-02T10:22:06.368Z,95819.24
2019-04-02T10:24:31.105Z,95821.66
2019-04-02T10:27:00.015Z,95816.81
2019-04-02T10:29:27.020Z,95821.07
2019-04-02T10:31:53.295Z,95802.35
2019-04-02T10:34:19.153Z,95796.01
2019-04-02T10:36:56.210Z,95814.38
2019-04-02T10:39:16.656Z,95803.31
2019-04-02T10:41:42.568Z,95795.54
2019-04-02T10:44:08.768Z,95786.05
2019-04-02T10:46:38.325Z,95793.58
2019-04-02T10:49:04.513Z,95781.25
2019-04-02T10:51:30.313Z,95780.02
2019-04-02T10:53:56.113Z,95778.83
2019-04-02T10:56:22.180Z,95772.67
2019-04-02T10:58:48.080Z,95776.41
2019-04-02T11:01:14.451Z,95769.13
2019-04-02T11:03:43.594Z,95767.05
2019-04-02T11:06:09.406Z,95758.28
2019-04-02T11:08:39.420Z,95767.69
2019-04-02T11:11:05.344Z,95759.20
2019-04-02T11:13:34.044Z,95762.08
2019-04-02T11:15:59.820Z,95748.55
2019-04-02T11:18:27.084Z,95745.55
2019-04-02T11:20:52.905Z,95743.05
2019-04-02T11:23:22.939Z,95745.97
2019-04-02T11:25:49.521Z,95739.91
2019-04-02T11:28:16.122Z,95737.24
2019-04-02T11:30:41.935Z,95720.26
2019-04-02T11:33:07.743Z,95727.73
2019-04-02T11:35:33.668Z,95724.49
2019-04-02T11:37:59.469Z,95710.53
2019-04-02T11:40:28.146Z,95707.92
2019-04-02T11:42:54.247Z,95701.47
2019-04-02T11:45:22.978Z,95709.65
2019-04-02T11:47:48.795Z,95706.29
2019-04-02T11:50:17.250Z,95700.67
2019-04-02T11:52:43.049Z,95706.65
2019-04-02T11:55:12.323Z,95698.77
2019-04-02T11:57:38.321Z,95699.39
2019-04-02T12:00:08.703Z,95697.08
2019-04-02T12:02:34.651Z,95707.02
2019-04-02T12:05:00.454Z,95694.72
2019-04-02T12:07:26.262Z,95700.81
2019-04-02T12:09:52.093Z,95686.89
2019-04-02T12:12:20.630Z,95685.72
2019-04-02T12:14:46.739Z,95692.20
2019-04-02T12:17:15.587Z,95689.31
2019-04-02T12:19:42.812Z,95695.21
2019-04-02T12:22:08.800Z,95678.54
2019-04-02T12:24:34.609Z,95672.37
2019-04-02T12:27:03.013Z,95689.91
2019-04-02T12:29:29.099Z,95682.73
2019-04-02T12:31:57.953Z,95681.52
2019-04-02T12:34:23.732Z,95670.88
2019-04-02T12:36:54.292Z,95668.73
2019-04-02T12:39:20.123Z,95669.28
2019-04-02T12:41:45.906Z,95663.40
2019-04-02T12:44:11.828Z,95657.39
2019-04-02T12:46:37.632Z,95664.87
2019-04-02T12:49:07.746Z,95652.88
2019-04-02T12:51:33.955Z,95651.66
2019-04-02T12:54:00.895Z,95650.20
2019-04-02T12:56:27.008Z,95648.43
2019-04-02T12:58:55.600Z,95645.16
2019-04-02T13:01:21.673Z,95634.19
2019-04-02T13:03:50.504Z,95643.91
2019-04-02T13:06:16.313Z,95655.03
2019-04-02T13:08:44.910Z,95642.98
2019-04-02T13:11:10.701Z,95632.59
2019-04-02T13:13:39.302Z,95622.26
2019-04-02T13:16:05.098Z,95633.37
2019-04-02T13:18:31.633Z,95619.23
2019-04-02T13:20:57.866Z,95615.44
2019-04-02T13:23:23.959Z,95607.56
2019-04-02T13:25:49.781Z,95613.78
2019-04-02T13:28:15.586Z,95609.83
2019-04-02T13:30:44.180Z,95607.66
2019-04-02T13:33:09.975Z,95614.43
2019-04-02T13:35:39.067Z,95593.47
2019-04-02T13:38:04.958Z,95595.16
2019-04-02T13:40:34.108Z,95585.07
2019-04-02T13:42:59.910Z,95585.59
2019-04-02T13:45:28.728Z,95586.48
2019-04-02T13:47:54.579Z,95580.72
2019-04-02T13:50:23.384Z,95569.95
2019-04-02T13:52:49.161Z,95580.72
2019-04-02T13:55:14.978Z,95565.38
2019-04-02T13:57:41.056Z,95568.00
2019-04-02T14:00:33.187Z,95557.17
2019-04-02T14:02:59.029Z,95567.79
2019-04-02T14:05:25.113Z,95556.73
2019-04-02T14:07:51.209Z,95545.01
2019-04-02T14:10:17.222Z,95546.33
2019-04-02T14:12:43.033Z,95550.45
2019-04-02T14:15:09.164Z,95541.69
2019-04-02T14:17:34.943Z,95538.10
2019-04-02T14:20:01.110Z,95535.03
2019-04-02T14:22:26.930Z,95530.34
2019-04-02T14:24:52.789Z,95530.58
2019-04-02T14:27:18.592Z,95539.91
2019-04-02T14:29:45.728Z,95526.13
2019-04-02T14:32:11.995Z,95517.54
2019-04-02T14:34:37.833Z,95517.35
2019-04-02T14:37:03.651Z,95517.54
2019-04-02T14:39:29.469Z,95510.73
2019-04-02T14:41:55.305Z,95514.17
2019-04-02T14:44:21.123Z,95505.83
2019-04-02T14:46:47.158Z,95509.88
2019-04-02T14:49:12.967Z,95506.86
2019-04-02T14:51:39.494Z,95504.69
2019-04-02T14:54:06.499Z,95503.36
2019-04-02T14:56:32.706Z,95496.73
2019-04-02T14:58:58.539Z,95488.75
2019-04-02T15:01:26.469Z,95486.52
2019-04-02T15:03:55.074Z,95479.45
2019-04-02T15:06:21.189Z,95478.02
2019-04-02T15:08:46.966Z,95474.15
2019-04-02T15:11:12.769Z,95467.66
2019-04-02T15:13:38.595Z,95469.59
2019-04-02T15:16:07.152Z,95474.03
2019-04-02T15:18:33.257Z,95481.13
2019-04-02T15:21:00.409Z,95467.19
2019-04-02T15:23:26.412Z,95471.20
2019-04-02T15:25:55.527Z,95450.09
2019-04-02T15:28:21.608Z,95471.34
2019-04-02T15:30:50.624Z,95462.70
2019-04-02T15:33:16.401Z,95460.39
2019-04-02T15:35:45.195Z,95458.86
2019-04-02T15:38:13.498Z,95456.31
2019-04-02T15:40:39.266Z,95453.72
2019-04-02T15:43:05.069Z,95446.33
2019-04-02T15:45:30.986Z,95440.74
2019-04-02T15:47:57.316Z,95438.85
2019-04-02T15:50:23.183Z,95443.95
2019-04-02T15:52:52.113Z,95440.41
2019-04-02T15:55:17.900Z,95451.43
2019-04-02T15:57:46.807Z,95435.41
2019-04-02T16:00:25.876Z,95437.36
2019-04-02T16:02:42.948Z,95435.34
2019-04-02T16:05:10.079Z,95428.73
2019-04-02T16:07:35.866Z,95437.95
2019-04-02T16:10:07.192Z,95441.08
2019-04-02T16:12:33.027Z,95427.58
2019-04-02T16:14:58.844Z,95434.75
2019-04-02T16:17:24.669Z,95427.16
2019-04-02T16:19:50.439Z,95425.53
2019-04-02T16:22:18.100Z,95432.30
2019-04-02T16:24:44.249Z,95432.30
2019-04-02T16:27:10.525Z,95428.73
2019-04-02T16:29:36.989Z,95432.17
2019-04-02T16:32:03.026Z,95419.48
2019-04-02T16:34:38.307Z,95435.73
2019-04-02T16:36:59.592Z,95436.66
2019-04-02T16:39:25.449Z,95436.66
2019-04-02T16:41:51.849Z,95424.16
2019-04-02T16:44:21.024Z,95431.13
2019-04-02T16:46:46.849Z,95424.78
2019-04-02T16:49:15.679Z,95426.27
2019-04-02T16:51:41.490Z,95429.78
2019-04-02T16:54:10.126Z,95416.06
2019-04-02T16:56:35.950Z,95424.30
2019-04-02T16:59:01.746Z,95426.89
2019-04-02T17:01:27.574Z,95431.32
2019-04-02T17:03:53.374Z,95445.99
2019-04-02T17:06:22.692Z,95444.58
2019-04-02T17:08:48.773Z,95456.20
2019-04-02T17:11:15.898Z,95456.20
2019-04-02T17:13:41.996Z,95450.02
2019-04-02T17:16:11.076Z,95450.02
2019-04-02T17:18:37.865Z,95453.84
2019-04-02T17:21:08.020Z,95466.61
2019-04-02T17:23:34.113Z,95466.61
2019-04-02T17:26:00.007Z,95461.84
2019-04-02T17:28:32.212Z,95414.84
2019-04-02T17:30:56.629Z,95459.23
2019-04-02T17:33:22.471Z,95479.98
2019-04-02T17:35:48.266Z,95464.86
2019-04-02T17:38:14.451Z,95465.20
2019-04-02T17:40:40.337Z,95466.68
2019-04-02T17:43:06.581Z,95464.22
2019-04-02T17:45:32.389Z,95473.27
2019-04-02T17:48:01.730Z,95474.43
2019-04-02T17:50:27.550Z,95484.81
2019-04-02T17:52:56.351Z,95475.08
2019-04-02T17:55:22.172Z,95480.03
2019-04-02T17:57:52.734Z,95464.23
2019-04-02T18:00:19.473Z,95473.79
2019-04-02T18:02:47.276Z,95476.73
2019-04-02T18:05:13.425Z,95476.87
2019-04-02T18:07:42.232Z,95469.45
2019-04-02T18:10:08.888Z,95476.82
2019-04-02T18:12:34.995Z,95468.59
2019-04-02T18:15:00.939Z,95473.20
2019-04-02T18:17:26.744Z,95480.27
2019-04-02T18:19:52.822Z,95481.23
2019-04-02T18:22:18.629Z,95483.04
2019-04-02T18:24:47.504Z,95484.20
2019-04-02T18:27:13.807Z,95501.95
2019-04-02T18:29:43.862Z,95487.13
2019-04-02T18:32:09.949Z,95508.50
2019-04-02T18:34:36.068Z,95501.92
2019-04-02T18:37:02.210Z,95494.36
2019-04-02T18:39:34.638Z,95514.86
2019-04-02T18:42:00.403Z,95508.41
2019-04-02T18:44:26.241Z,95509.40
2019-04-02T18:46:52.254Z,95503.42
2019-04-02T18:49:20.888Z,95497.98
2019-04-02T18:51:46.123Z,95497.30
2019-04-02T18:54:11.983Z,95506.49
2019-04-02T18:56:37.813Z,95497.15
2019-04-02T18:59:03.627Z,95497.15
2019-04-02T19:01:32.785Z,95500.14
2019-04-02T19:04:00.125Z,95497.84
2019-04-02T19:06:26.364Z,95496.49
2019-04-02T19:08:52.407Z,95352.75
2019-04-02T19:11:22.754Z,95509.81
2019-04-02T19:13:49.230Z,95512.26
2019-04-02T19:16:17.846Z,95510.77
2019-04-02T19:18:43.675Z,95521.53
2019-04-02T19:21:12.466Z,95525.61
2019-04-02T19:23:38.498Z,95523.63
2019-04-02T19:26:04.292Z,95526.02
2019-04-02T19:28:30.135Z,95516.02
2019-04-02T19:30:55.952Z,95527.94
2019-04-02T19:33:24.543Z,95541.36
2019-04-02T19:35:50.643Z,95525.95
2019-04-02T19:38:19.466Z,95529.64
2019-04-02T19:40:45.335Z,95558.19
2019-04-02T19:43:13.938Z,95547.27
2019-04-02T19:45:39.773Z,95552.72
2019-04-02T19:48:08.399Z,95569.17
2019-04-02T19:50:34.199Z,95574.09
2019-04-02T19:53:01.866Z,95571.89
2019-04-02T19:55:27.730Z,95562.97
2019-04-02T19:57:56.607Z,95553.01
2019-04-02T20:00:22.901Z,95565.14
2019-04-02T20:02:48.738Z,95556.29
2019-04-02T20:05:14.652Z,95548.44
2019-04-02T20:07:43.188Z,95546.00
2019-04-02T20:10:08.733Z,95545.20
2019-04-02T20:12:35.722Z,95545.22
2019-04-02T20:15:06.717Z,95539.77
2019-04-02T20:17:32.761Z,95547.63
2019-04-02T20:19:58.583Z,95529.09
2019-04-02T20:22:24.389Z,95527.16
2019-04-02T20:24:53.237Z,95529.70
2019-04-02T20:27:19.034Z,95536.14
2019-04-02T20:29:49.437Z,95537.45
2019-04-02T20:32:15.412Z,95552.69
2019-04-02T20:34:41.331Z,95543.95
2019-04-02T20:37:07.230Z,95552.48
2019-04-02T20:39:33.029Z,95559.06
2019-04-02T20:41:59.365Z,95552.48
2019-04-02T20:44:25.251Z,95546.45
2019-04-02T20:46:53.948Z,95545.33
2019-04-02T20:49:19.764Z,95545.67
2019-04-02T20:51:48.039Z,95547.44
2019-04-02T20:54:13.883Z,95559.30
2019-04-02T20:56:44.390Z,95546.30
2019-04-02T20:59:10.433Z,95546.41
2019-04-02T21:01:37.831Z,95542.66
2019-04-02T21:04:04.003Z,95551.89
2019-04-02T21:06:32.851Z,95546.03
2019-04-02T21:08:58.659Z,95560.10
2019-04-02T21:11:27.107Z,95553.73
2019-04-02T21:13:52.924Z,95581.49
2019-04-02T21:16:18.725Z,95564.70
2019-04-02T21:18:45.216Z,95564.25
2019-04-02T21:21:11.549Z,95584.57
2019-04-02T21:23:38.967Z,95570.36
2019-04-02T21:26:04.746Z,95575.74
2019-04-02T21:28:35.173Z,95569.69
2019-04-02T21:31:00.952Z,95569.27
2019-04-02T21:33:34.196Z,95569.73
2019-04-02T21:35:56.007Z,95568.92
2019-04-02T21:38:24.834Z,95569.53
2019-04-02T21:40:50.704Z,95581.39
2019-04-02T21:43:19.319Z,95568.39
2019-04-02T21:45:45.446Z,95565.77
2019-04-02T21:48:14.520Z,95559.69
2019-04-02T21:50:40.318Z,95564.30
2019-04-02T21:53:06.730Z,95558.45
2019-04-02T21:55:34.120Z,95559.45
2019-04-02T21:58:00.080Z,95555.98
2019-04-02T22:00:33.932Z,95556.16
2019-04-02T22:02:59.730Z,95555.52
2019-04-02T22:05:25.511Z,95559.45
2019-04-02T22:07:51.317Z,95562.06
2019-04-02T22:10:17.138Z,95559.69
2019-04-02T22:12:43.312Z,95555.42
2019-04-02T22:15:12.267Z,95563.95
2019-04-02T22:17:38.559Z,95558.48
2019-04-02T22:20:04.786Z,95555.31
2019-04-02T22:22:31.587Z,95553.97
2019-04-02T22:24:57.498Z,95563.56
2019-04-02T22:27:23.329Z,95557.56
2019-04-02T22:29:49.145Z,95552.12
2019-04-02T22:32:15.603Z,95552.92
2019-04-02T22:34:49.008Z,95551.38
2019-04-02T22:37:10.129Z,95559.53
2019-04-02T22:39:35.932Z,95549.13
2019-04-02T22:42:04.837Z,95547.55
2019-04-02T22:44:30.684Z,95548.56
2019-04-02T22:46:59.614Z,95549.30
2019-04-02T22:49:25.900Z,95561.28
2019-04-02T22:51:56.411Z,95550.44
2019-04-02T22:54:22.478Z,95566.13
2019-04-02T22:56:48.404Z,95546.24
2019-04-02T22:59:14.538Z,95554.24
2019-04-02T23:01:43.100Z,95553.15
2019-04-02T23:04:09.195Z,95554.12
2019-04-02T23:06:35.006Z,95551.25
2019-04-02T23:09:01.585Z,95550.37
2019-04-02T23:11:28.528Z,95541.01
2019-04-02T23:13:54.643Z,95542.69
2019-04-02T23:16:25.665Z,95534.58
2019-04-02T23:18:51.204Z,95533.72
2019-04-02T23:21:17.017Z,95539.17
2019-04-02T23:23:45.067Z,95531.94
2019-04-02T23:26:11.911Z,95532.55
2019-04-02T23:28:39.350Z,95533.03
2019-04-02T23:31:05.155Z,95519.33
2019-04-02T23:33:33.517Z,95513.31
2019-04-02T23:35:59.325Z,95523.14
2019-04-02T23:38:28.227Z,95507.55
2019-04-02T23:44:35.588Z,95493.84
2019-04-02T23:47:03.347Z,95491.07
2019-04-02T23:49:31.582Z,95492.28
2019-04-02T23:51:58.955Z,95480.08
2019-04-02T23:54:25.572Z,95485.38
2019-04-02T23:56:52.175Z,95479.17
2019-04-02T23:59:18.743Z,95473.86
